CG Katherine Walker — NKFW — position and weather

sailwx.info

Track history (hours):
 
Tides and Currents Weather Stations Pressure Air Temp Water Temp Dewpoint Dewpoint Depression Visibility Wind Speed Wind Dir Waves Ship Positions

CG Katherine Walker

Last reported at 2017-Oct-17 23:59 UTC. Time now 2017-Oct-18 18:44 UTC.
Position N 41°17' W 072°04'.

Length 53 m; draft 2.7 m.

Type: Military. MMSI: 368975000.

Date/timePositionNaut miles runAvg speedWind from/ knotsBaromVisibWave heightAir tempDewpointWater temp
2017-Oct-17 23:59N 41°17' W 072°04'5 0.3
2017-Oct-17 02:57N 41°14' W 072°09'712.4
2017-Oct-17 02:25N 41°13' W 072°18'512.5
2017-Oct-17 02:00N 41°11' W 072°25'612.3
2017-Oct-17 01:30N 41°10' W 072°33'611.8
2017-Oct-17 01:00N 41°09' W 072°41'52 6.9
2017-Oct-16 17:25N 40°51' W 073°45'0 0.1
2017-Oct-16 17:00N 40°50' W 073°45'2 4.1
2017-Oct-16 16:30N 40°49' W 073°47'5 9.9
2017-Oct-16 16:00N 40°48' W 073°53'4 7.5
2017-Oct-16 15:30N 40°46' W 073°57'4 7.9
2017-Oct-16 15:00N 40°42' W 073°60'4 8.4
2017-Oct-16 14:30N 40°40' W 074°04'  
2017-Oct-13 17:08N 40°40' W 074°05'1 4.6
2017-Oct-13 16:59N 40°40' W 074°05'611.6
2017-Oct-13 16:29N 40°35' W 074°02'611.5
2017-Oct-13 15:57N 40°29' W 073°58'1 2.1
2017-Oct-13 15:30N 40°28' W 073°58'0 0.0
2017-Oct-13 14:54N 40°28' W 073°58'0 0.0
2017-Oct-13 14:29N 40°28' W 073°58'0 0.0
2017-Oct-13 14:00N 40°28' W 073°58'0 0.1
2017-Oct-13 13:30N 40°28' W 073°58'2 3.5
2017-Oct-13 13:00N 40°29' W 073°60'0 0.4
2017-Oct-13 12:30N 40°29' W 074°00'0 0.0
2017-Oct-13 12:00N 40°29' W 074°00'2 4.2
2017-Oct-13 11:28N 40°28' W 074°03'0 0.0
2017-Oct-13 10:10N 40°28' W 074°03'0 0.0
2017-Oct-13 09:49N 40°28' W 074°03'0 0.0
2017-Oct-13 09:28N 40°28' W 074°03'0 0.0
2017-Oct-13 08:31N 40°28' W 074°03'0 0.1
2017-Oct-13 08:22N 40°28' W 074°03'0 0.0
2017-Oct-13 07:58N 40°28' W 074°03'0 0.0
2017-Oct-13 07:22N 40°28' W 074°03'0 0.0
2017-Oct-13 06:36N 40°28' W 074°03'0 0.0
2017-Oct-13 06:28N 40°28' W 074°03'0 0.0
2017-Oct-13 03:01N 40°28' W 074°03'0 0.0
2017-Oct-13 02:37N 40°28' W 074°03'0 0.0
2017-Oct-13 01:49N 40°28' W 074°03'0 0.0
2017-Oct-13 01:25N 40°28' W 074°03'2 0.7
2017-Oct-12 22:44N 40°29' W 074°01'1 4.9
2017-Oct-12 22:30N 40°29' W 073°59'0 0.0
2017-Oct-12 21:58N 40°29' W 073°59'0 0.1
2017-Oct-12 21:30N 40°29' W 073°59'1 2.6
2017-Oct-12 21:00N 40°28' W 073°58'0 0.1
2017-Oct-12 20:30N 40°28' W 073°58'0 0.1
2017-Oct-12 20:00N 40°28' W 073°58'2 4.4
2017-Oct-12 19:30N 40°29' W 074°01'0 0.0
2017-Oct-12 19:00N 40°29' W 074°01'0 0.0
2017-Oct-12 18:30N 40°29' W 074°01'2 3.1
2017-Oct-12 17:59N 40°29' W 074°03'511.1
2017-Oct-12 17:30N 40°35' W 074°02'510.4
2017-Oct-12 17:00N 40°40' W 074°04'1 1.0
2017-Oct-12 16:30N 40°40' W 074°04'3 6.4
2017-Oct-12 16:00N 40°39' W 074°07'4 8.8
2017-Oct-12 15:30N 40°36' W 074°12'10 4.3
2017-Oct-12 13:09N 40°29' W 074°03'1 0.8
2017-Oct-12 12:26N 40°29' W 074°03'2 4.4
2017-Oct-12 11:59N 40°29' W 074°00'2 4.6
2017-Oct-12 11:30N 40°28' W 074°03'0 0.1
2017-Oct-12 10:54N 40°28' W 074°03'0 0.0
2017-Oct-12 10:18N 40°28' W 074°03'0 0.0
2017-Oct-12 09:58N 40°28' W 074°03'0 0.0
2017-Oct-12 09:28N 40°28' W 074°03'0 0.0
2017-Oct-12 08:52N 40°28' W 074°03'0 0.0
2017-Oct-12 08:16N 40°28' W 074°03'0 0.0
2017-Oct-12 07:40N 40°28' W 074°03'0 0.0
2017-Oct-12 07:28N 40°28' W 074°03'0 0.0
2017-Oct-12 06:58N 40°28' W 074°03'0 0.0
2017-Oct-12 03:49N 40°28' W 074°03'0 0.0
2017-Oct-12 03:31N 40°28' W 074°03'0 0.0
2017-Oct-12 03:00N 40°28' W 074°03'0 0.0
2017-Oct-12 02:28N 40°28' W 074°03'0 0.0
2017-Oct-12 01:52N 40°28' W 074°03'0 0.0
2017-Oct-12 01:28N 40°28' W 074°03'0 0.0
2017-Oct-12 00:55N 40°28' W 074°03'0 0.0
2017-Oct-12 00:28N 40°28' W 074°03'0 0.0
2017-Oct-11 23:52N 40°28' W 074°03'2 4.4
2017-Oct-11 23:30N 40°29' W 074°01'510.5
2017-Oct-11 23:00N 40°29' W 073°54'2312.0
2017-Oct-11 21:06N 40°33' W 073°24'19 4.3
2017-Oct-11 16:36N 40°30' W 073°50'  
Track history (hours):
 
Tides and Currents Weather Stations Pressure Air Temp Water Temp Dewpoint Dewpoint Depression Visibility Wind Speed Wind Dir Waves Ship Positions

CG Katherine Walker

Last reported at 2017-Oct-17 23:59 UTC. Time now 2017-Oct-18 18:44 UTC.
Position N 41°17' W 072°04'.

Length 53 m; draft 2.7 m.

Type: Military. MMSI: 368975000.

Date/timePositionNaut miles runAvg speedWind from/ knotsBaromVisibWave heightAir tempDewpointWater temp
2017-Oct-17 23:59N 41°17' W 072°04'5 0.3
2017-Oct-17 02:57N 41°14' W 072°09'712.4
2017-Oct-17 02:25N 41°13' W 072°18'512.5
2017-Oct-17 02:00N 41°11' W 072°25'612.3
2017-Oct-17 01:30N 41°10' W 072°33'611.8
2017-Oct-17 01:00N 41°09' W 072°41'52 6.9
2017-Oct-16 17:25N 40°51' W 073°45'0 0.1
2017-Oct-16 17:00N 40°50' W 073°45'2 4.1
2017-Oct-16 16:30N 40°49' W 073°47'5 9.9
2017-Oct-16 16:00N 40°48' W 073°53'4 7.5
2017-Oct-16 15:30N 40°46' W 073°57'4 7.9
2017-Oct-16 15:00N 40°42' W 073°60'4 8.4
2017-Oct-16 14:30N 40°40' W 074°04'  
2017-Oct-13 17:08N 40°40' W 074°05'1 4.6
2017-Oct-13 16:59N 40°40' W 074°05'611.6
2017-Oct-13 16:29N 40°35' W 074°02'611.5
2017-Oct-13 15:57N 40°29' W 073°58'1 2.1
2017-Oct-13 15:30N 40°28' W 073°58'0 0.0
2017-Oct-13 14:54N 40°28' W 073°58'0 0.0
2017-Oct-13 14:29N 40°28' W 073°58'0 0.0
2017-Oct-13 14:00N 40°28' W 073°58'0 0.1
2017-Oct-13 13:30N 40°28' W 073°58'2 3.5
2017-Oct-13 13:00N 40°29' W 073°60'0 0.4
2017-Oct-13 12:30N 40°29' W 074°00'0 0.0
2017-Oct-13 12:00N 40°29' W 074°00'2 4.2
2017-Oct-13 11:28N 40°28' W 074°03'0 0.0
2017-Oct-13 10:10N 40°28' W 074°03'0 0.0
2017-Oct-13 09:49N 40°28' W 074°03'0 0.0
2017-Oct-13 09:28N 40°28' W 074°03'0 0.0
2017-Oct-13 08:31N 40°28' W 074°03'0 0.1
2017-Oct-13 08:22N 40°28' W 074°03'0 0.0
2017-Oct-13 07:58N 40°28' W 074°03'0 0.0
2017-Oct-13 07:22N 40°28' W 074°03'0 0.0
2017-Oct-13 06:36N 40°28' W 074°03'0 0.0
2017-Oct-13 06:28N 40°28' W 074°03'0 0.0
2017-Oct-13 03:01N 40°28' W 074°03'0 0.0
2017-Oct-13 02:37N 40°28' W 074°03'0 0.0
2017-Oct-13 01:49N 40°28' W 074°03'0 0.0
2017-Oct-13 01:25N 40°28' W 074°03'2 0.7
2017-Oct-12 22:44N 40°29' W 074°01'1 4.9
2017-Oct-12 22:30N 40°29' W 073°59'0 0.0
2017-Oct-12 21:58N 40°29' W 073°59'0 0.1
2017-Oct-12 21:30N 40°29' W 073°59'1 2.6
2017-Oct-12 21:00N 40°28' W 073°58'0 0.1
2017-Oct-12 20:30N 40°28' W 073°58'0 0.1
2017-Oct-12 20:00N 40°28' W 073°58'2 4.4
2017-Oct-12 19:30N 40°29' W 074°01'0 0.0
2017-Oct-12 19:00N 40°29' W 074°01'0 0.0
2017-Oct-12 18:30N 40°29' W 074°01'2 3.1
2017-Oct-12 17:59N 40°29' W 074°03'511.1
2017-Oct-12 17:30N 40°35' W 074°02'510.4
2017-Oct-12 17:00N 40°40' W 074°04'1 1.0
2017-Oct-12 16:30N 40°40' W 074°04'3 6.4
2017-Oct-12 16:00N 40°39' W 074°07'4 8.8
2017-Oct-12 15:30N 40°36' W 074°12'10 4.3
2017-Oct-12 13:09N 40°29' W 074°03'1 0.8
2017-Oct-12 12:26N 40°29' W 074°03'2 4.4
2017-Oct-12 11:59N 40°29' W 074°00'2 4.6
2017-Oct-12 11:30N 40°28' W 074°03'0 0.1
2017-Oct-12 10:54N 40°28' W 074°03'0 0.0
2017-Oct-12 10:18N 40°28' W 074°03'0 0.0
2017-Oct-12 09:58N 40°28' W 074°03'0 0.0
2017-Oct-12 09:28N 40°28' W 074°03'0 0.0
2017-Oct-12 08:52N 40°28' W 074°03'0 0.0
2017-Oct-12 08:16N 40°28' W 074°03'0 0.0
2017-Oct-12 07:40N 40°28' W 074°03'0 0.0
2017-Oct-12 07:28N 40°28' W 074°03'0 0.0
2017-Oct-12 06:58N 40°28' W 074°03'0 0.0
2017-Oct-12 03:49N 40°28' W 074°03'0 0.0
2017-Oct-12 03:31N 40°28' W 074°03'0 0.0
2017-Oct-12 03:00N 40°28' W 074°03'0 0.0
2017-Oct-12 02:28N 40°28' W 074°03'0 0.0
2017-Oct-12 01:52N 40°28' W 074°03'0 0.0
2017-Oct-12 01:28N 40°28' W 074°03'0 0.0
2017-Oct-12 00:55N 40°28' W 074°03'0 0.0
2017-Oct-12 00:28N 40°28' W 074°03'0 0.0
2017-Oct-11 23:52N 40°28' W 074°03'2 4.4
2017-Oct-11 23:30N 40°29' W 074°01'510.5
2017-Oct-11 23:00N 40°29' W 073°54'2312.0
2017-Oct-11 21:06N 40°33' W 073°24'19 4.3
2017-Oct-11 16:36N 40°30' W 073°50'  

Dump ship's entire track history